sensor_id;sensor_type;location;lat;lon;timestamp;pressure;altitude;pressure_sealevel;temperature;humidity
73105;BME280;61296;50.526;30.792;2023-01-25T00:51:54;101197.66;;;-3.28;97.08
73105;BME280;61296;50.526;30.792;2023-01-25T01:07:16;101265.31;;;-2.91;95.99
73105;BME280;61296;50.526;30.792;2023-01-25T01:22:35;101205.06;;;-3.35;94.74
73105;BME280;61296;50.526;30.792;2023-01-25T01:37:55;101303.34;;;-2.70;94.92
73105;BME280;61296;50.526;30.792;2023-01-25T01:53:14;101253.44;;;-3.06;93.54
73105;BME280;61296;50.526;30.792;2023-01-25T02:08:35;101285.69;;;-2.61;92.54
73105;BME280;61296;50.526;30.792;2023-01-25T02:24:19;101164.63;;;-3.23;90.94
73105;BME280;61296;50.526;30.792;2023-01-25T02:39:37;101196.84;;;-3.11;90.36
73105;BME280;61296;50.526;30.792;2023-01-25T02:54:57;101214.06;;;-2.96;89.83
73105;BME280;61296;50.526;30.792;2023-01-25T03:10:16;101165.38;;;-3.11;88.02
73105;BME280;61296;50.526;30.792;2023-01-25T03:25:36;101254.94;;;-2.65;86.84
73105;BME280;61296;50.526;30.792;2023-01-25T03:41:03;101205.59;;;-2.87;85.63
73105;BME280;61296;50.526;30.792;2023-01-25T03:56:22;101224.41;;;-3.04;83.88
73105;BME280;61296;50.526;30.792;2023-01-25T04:11:54;101217.16;;;-3.04;83.32
73105;BME280;61296;50.526;30.792;2023-01-25T04:27:14;101143.47;;;-3.65;81.90
73105;BME280;61296;50.526;30.792;2023-01-25T04:42:44;101156.34;;;-3.67;82.28
73105;BME280;61296;50.526;30.792;2023-01-25T04:58:04;101206.19;;;-3.47;83.36
73105;BME280;61296;50.526;30.792;2023-01-25T05:13:25;101250.25;;;-3.20;83.65
73105;BME280;61296;50.526;30.792;2023-01-25T05:28:53;101205.16;;;-3.87;85.62
73105;BME280;61296;50.526;30.792;2023-01-25T05:44:28;101221.88;;;-3.56;86.39
73105;BME280;61296;50.526;30.792;2023-01-25T10:05:19;101145.69;;;-2.95;85.99
73105;BME280;61296;50.526;30.792;2023-01-25T10:20:56;101081.22;;;-3.23;83.61
73105;BME280;61296;50.526;30.792;2023-01-25T10:36:20;101135.09;;;-2.84;84.41
73105;BME280;61296;50.526;30.792;2023-01-25T10:51:42;101126.69;;;-2.88;84.86
73105;BME280;61296;50.526;30.792;2023-01-25T11:07:03;101065.81;;;-3.44;84.67
73105;BME280;61296;50.526;30.792;2023-01-25T11:22:24;101067.31;;;-3.54;85.19
73105;BME280;61296;50.526;30.792;2023-01-25T12:40:12;101076.53;;;-2.94;85.81
73105;BME280;61296;50.526;30.792;2023-01-25T12:55:33;101082.81;;;-2.88;84.88
73105;BME280;61296;50.526;30.792;2023-01-25T13:11:12;101043.53;;;-3.23;85.67
73105;BME280;61296;50.526;30.792;2023-01-25T13:26:37;101008.47;;;-3.67;87.37
73105;BME280;61296;50.526;30.792;2023-01-25T13:42:01;101040.03;;;-3.24;87.31
73105;BME280;61296;50.526;30.792;2023-01-25T18:12:15;100926.97;;;-3.29;87.41
73105;BME280;61296;50.526;30.792;2023-01-25T18:27:36;100924.16;;;-3.39;89.06
73105;BME280;61296;50.526;30.792;2023-01-25T18:42:56;100885.31;;;-3.26;87.92
73105;BME280;61296;50.526;30.792;2023-01-25T18:58:16;100881.63;;;-3.42;87.36
73105;BME280;61296;50.526;30.792;2023-01-25T19:13:37;100946.34;;;-3.10;87.81
73105;BME280;61296;50.526;30.792;2023-01-25T19:28:56;100919.03;;;-3.40;86.88
73105;BME280;61296;50.526;30.792;2023-01-25T19:44:15;100925.09;;;-3.28;88.01
73105;BME280;61296;50.526;30.792;2023-01-25T19:59:36;100812.53;;;-4.02;88.14
73105;BME280;61296;50.526;30.792;2023-01-25T20:14:56;100918.66;;;-3.27;87.55
73105;BME280;61296;50.526;30.792;2023-01-25T20:30:16;100913.69;;;-3.57;87.41
73105;BME280;61296;50.526;30.792;2023-01-25T20:45:35;100809.00;;;-4.24;88.03
73105;BME280;61296;50.526;30.792;2023-01-25T21:00:56;100882.94;;;-3.83;88.22
73105;BME280;61296;50.526;30.792;2023-01-25T21:16:17;100891.63;;;-3.59;87.71
73105;BME280;61296;50.526;30.792;2023-01-25T21:31:39;100796.44;;;-4.19;87.05
73105;BME280;61296;50.526;30.792;2023-01-25T21:47:01;100835.75;;;-4.13;88.72
73105;BME280;61296;50.526;30.792;2023-01-25T23:22:22;100810.63;;;-3.85;88.84
73105;BME280;61296;50.526;30.792;2023-01-25T23:37:44;100700.09;;;-4.71;89.95
73105;BME280;61296;50.526;30.792;2023-01-25T23:53:04;100767.22;;;-4.15;89.83
